createdAt,value
2022-11-28T00:01:19.471Z,-0.30
2022-11-28T00:03:47.069Z,-0.30
2022-11-28T00:06:14.803Z,-0.30
2022-11-28T00:08:42.406Z,-0.40
2022-11-28T00:11:11.678Z,-0.40
2022-11-28T00:13:39.138Z,-0.50
2022-11-28T00:16:08.399Z,-0.50
2022-11-28T00:18:35.968Z,-0.60
2022-11-28T00:21:06.621Z,-0.60
2022-11-28T00:23:34.176Z,-0.60
2022-11-28T00:26:04.439Z,-0.60
2022-11-28T00:28:32.022Z,-0.60
2022-11-28T00:30:59.387Z,-0.50
2022-11-28T00:33:26.823Z,-0.50
2022-11-28T00:36:03.666Z,-0.50
2022-11-28T00:38:31.359Z,-0.50
2022-11-28T00:41:00.675Z,-0.50
2022-11-28T00:43:28.492Z,-0.50
2022-11-28T00:45:55.964Z,-0.60
2022-11-28T00:48:24.224Z,-0.60
2022-11-28T00:50:51.933Z,-0.60
2022-11-28T00:53:19.637Z,-0.60
2022-11-28T00:55:47.160Z,-0.50
2022-11-28T00:58:14.667Z,-0.40
2022-11-28T01:00:44.265Z,-0.30
2022-11-28T01:03:11.413Z,-0.20
2022-11-28T01:05:43.815Z,-0.10
2022-11-28T01:08:11.419Z,0.00
2022-11-28T01:10:42.326Z,0.10
2022-11-28T01:13:10.273Z,0.20
2022-11-28T01:15:41.220Z,0.20
2022-11-28T01:18:09.021Z,0.10
2022-11-28T01:20:36.585Z,0.20
2022-11-28T01:23:04.183Z,0.20
2022-11-28T01:25:31.507Z,0.30
2022-11-28T01:27:58.803Z,0.30
2022-11-28T01:30:26.130Z,0.30
2022-11-28T01:32:53.336Z,0.30
2022-11-28T01:35:20.591Z,0.30
2022-11-28T01:37:47.794Z,0.20
2022-11-28T01:40:16.939Z,0.10
2022-11-28T01:42:44.191Z,0.10
2022-11-28T01:45:16.114Z,0.10
2022-11-28T01:47:44.233Z,0.10
2022-11-28T01:50:13.058Z,0.00
2022-11-28T01:52:44.539Z,0.00
2022-11-28T01:55:15.041Z,0.00
2022-11-28T01:57:43.451Z,0.10
2022-11-28T02:00:17.135Z,0.10
2022-11-28T02:03:10.681Z,0.10
2022-11-28T02:05:38.643Z,0.00
2022-11-28T02:08:06.709Z,0.00
2022-11-28T02:11:11.763Z,0.00
2022-11-28T02:13:48.821Z,0.00
2022-11-28T02:16:17.040Z,0.00
2022-11-28T02:18:55.035Z,0.00
2022-11-28T02:21:28.871Z,-0.10
2022-11-28T02:24:16.606Z,-0.10
2022-11-28T02:26:45.799Z,0.00
2022-11-28T02:29:34.467Z,0.00
2022-11-28T02:32:11.315Z,0.10
2022-11-28T02:35:03.750Z,0.20
2022-11-28T02:37:36.328Z,0.20
2022-11-28T02:40:07.886Z,0.20
2022-11-28T02:42:42.595Z,0.20
2022-11-28T02:45:19.029Z,0.30
2022-11-28T02:47:51.493Z,0.30
2022-11-28T02:50:24.827Z,0.40
2022-11-28T02:52:57.802Z,0.50
2022-11-28T02:55:26.148Z,0.50
2022-11-28T02:57:54.905Z,0.60
2022-11-28T03:00:25.980Z,0.60
2022-11-28T03:03:20.039Z,0.60
2022-11-28T03:06:11.907Z,0.50
2022-11-28T03:08:43.542Z,0.60
2022-11-28T03:11:33.888Z,0.60
2022-11-28T03:14:33.942Z,0.70
2022-11-28T03:17:13.772Z,0.70
2022-11-28T03:19:49.164Z,0.70
2022-11-28T03:22:46.630Z,0.70
2022-11-28T03:25:41.022Z,0.80
2022-11-28T03:28:21.849Z,0.80
2022-11-28T03:30:54.089Z,0.80
2022-11-28T03:33:24.070Z,0.80
2022-11-28T03:35:58.462Z,0.80
2022-11-28T03:38:34.074Z,0.70
2022-11-28T03:41:10.343Z,0.80
2022-11-28T03:43:43.162Z,0.80
2022-11-28T03:46:16.203Z,0.80
2022-11-28T03:48:47.592Z,0.70
2022-11-28T03:51:35.295Z,0.70
2022-11-28T03:54:28.206Z,0.70
2022-11-28T03:57:11.799Z,0.80
2022-11-28T03:59:47.026Z,0.80
2022-11-28T04:02:22.157Z,0.80
2022-11-28T04:05:11.982Z,0.80
2022-11-28T04:07:39.364Z,0.80
2022-11-28T04:10:12.683Z,0.90
2022-11-28T04:13:07.122Z,0.90
2022-11-28T04:15:57.678Z,0.90
2022-11-28T04:18:31.110Z,0.90
2022-11-28T04:21:10.135Z,0.90
2022-11-28T04:23:40.238Z,1.00
2022-11-28T04:26:18.394Z,1.00
2022-11-28T04:28:48.040Z,1.00
2022-11-28T04:31:17.819Z,1.00
2022-11-28T04:33:50.064Z,1.00
2022-11-28T04:36:20.550Z,1.00
2022-11-28T04:38:56.260Z,1.00
2022-11-28T04:41:43.606Z,1.00
2022-11-28T04:44:27.061Z,1.00
2022-11-28T04:46:56.779Z,1.00
2022-11-28T04:49:26.552Z,1.00
2022-11-28T04:52:22.116Z,1.00
2022-11-28T04:55:09.228Z,0.90
2022-11-28T04:57:40.979Z,0.90
2022-11-28T05:00:12.639Z,0.90
2022-11-28T05:02:42.173Z,0.90
2022-11-28T05:05:16.115Z,0.90
2022-11-28T05:07:43.449Z,0.90
2022-11-28T05:10:12.353Z,0.90
2022-11-28T05:12:39.915Z,0.90
2022-11-28T05:15:08.317Z,0.90
2022-11-28T05:17:41.768Z,0.90
2022-11-28T05:20:09.777Z,0.90
2022-11-28T05:22:36.842Z,0.80
2022-11-28T05:25:04.495Z,0.80
2022-11-28T05:27:31.612Z,0.80
2022-11-28T05:29:58.734Z,0.80
2022-11-28T05:32:26.255Z,0.80
2022-11-28T05:34:53.832Z,0.80
2022-11-28T05:37:21.323Z,0.80
2022-11-28T05:39:48.789Z,0.80
2022-11-28T05:42:16.458Z,0.80
2022-11-28T05:44:43.971Z,0.80
2022-11-28T05:47:11.449Z,0.80
2022-11-28T05:49:39.160Z,0.80
2022-11-28T05:52:06.645Z,0.80
2022-11-28T05:54:34.264Z,0.80
2022-11-28T05:57:02.931Z,0.80
2022-11-28T05:59:30.024Z,0.80
2022-11-28T06:01:57.330Z,0.80
2022-11-28T06:04:24.453Z,0.80
2022-11-28T06:06:52.487Z,0.70
2022-11-28T06:09:24.505Z,0.80
2022-11-28T06:11:53.330Z,0.70
2022-11-28T06:14:20.777Z,0.70
2022-11-28T06:16:47.954Z,0.60
2022-11-28T06:19:15.726Z,0.70
2022-11-28T06:21:42.942Z,0.70
2022-11-28T06:24:10.848Z,0.80
2022-11-28T06:26:38.023Z,0.70
2022-11-28T06:29:05.347Z,0.70
2022-11-28T06:31:32.722Z,0.70
2022-11-28T06:34:00.002Z,0.70
2022-11-28T06:36:27.596Z,0.70
2022-11-28T06:38:54.810Z,0.70
2022-11-28T06:41:23.139Z,0.60
2022-11-28T06:43:50.542Z,0.70
2022-11-28T06:46:20.137Z,0.60
2022-11-28T06:48:48.768Z,0.60
2022-11-28T06:51:19.539Z,0.60
2022-11-28T06:53:46.883Z,0.60
2022-11-28T06:56:18.264Z,0.60
2022-11-28T06:58:46.502Z,0.60
2022-11-28T07:01:20.421Z,0.70
2022-11-28T07:03:48.504Z,0.70
2022-11-28T07:06:17.868Z,0.70
2022-11-28T07:08:45.117Z,0.80
2022-11-28T07:11:14.288Z,0.90
2022-11-28T07:13:42.598Z,0.90
2022-11-28T07:16:15.107Z,0.90
2022-11-28T07:18:42.703Z,1.00
2022-11-28T07:21:10.251Z,0.90
2022-11-28T07:23:37.942Z,0.90
2022-11-28T07:26:05.804Z,0.90
2022-11-28T07:28:34.075Z,1.00
2022-11-28T07:31:11.081Z,1.00
2022-11-28T07:33:39.725Z,1.10
2022-11-28T07:36:11.509Z,1.10
2022-11-28T07:38:38.825Z,1.20
2022-11-28T07:41:08.488Z,1.20
2022-11-28T07:43:36.147Z,1.20
2022-11-28T07:46:06.863Z,1.30
2022-11-28T07:48:35.017Z,1.30
2022-11-28T07:51:08.688Z,1.30
2022-11-28T07:53:36.993Z,1.30
2022-11-28T07:56:06.949Z,1.30
2022-11-28T07:58:35.380Z,1.30
2022-11-28T08:01:20.751Z,1.40
2022-11-28T08:03:48.635Z,1.50
2022-11-28T08:06:17.695Z,1.50
2022-11-28T08:08:47.338Z,1.60
2022-11-28T08:11:15.965Z,1.60
2022-11-28T08:13:43.783Z,1.80
2022-11-28T08:16:22.502Z,1.90
2022-11-28T08:18:51.271Z,2.00
2022-11-28T08:21:21.149Z,2.00
2022-11-28T08:23:48.210Z,2.10
2022-11-28T08:26:17.249Z,2.10
2022-11-28T08:28:44.386Z,2.10
2022-11-28T08:31:14.353Z,2.00
2022-11-28T08:33:42.048Z,1.90
2022-11-28T08:36:11.793Z,1.70
2022-11-28T08:38:39.473Z,1.70
2022-11-28T08:41:09.861Z,1.70
2022-11-28T08:43:38.354Z,1.80
2022-11-28T08:46:06.587Z,1.80
2022-11-28T08:48:35.576Z,1.90
2022-11-28T08:51:03.314Z,1.90
2022-11-28T08:53:30.558Z,1.90
2022-11-28T08:55:57.586Z,2.00
2022-11-28T08:58:24.660Z,2.10
2022-11-28T09:00:52.138Z,2.10
2022-11-28T09:03:20.596Z,2.10
2022-11-28T09:05:48.569Z,2.20
2022-11-28T09:08:18.222Z,2.20
2022-11-28T09:10:46.343Z,2.10
2022-11-28T09:13:14.671Z,2.00
2022-11-28T09:15:43.290Z,1.90
2022-11-28T09:18:13.079Z,1.90
2022-11-28T09:20:40.607Z,1.90
2022-11-28T09:23:09.088Z,2.00
2022-11-28T09:25:37.775Z,1.90
2022-11-28T09:28:05.303Z,1.90
2022-11-28T09:30:33.065Z,1.90
2022-11-28T09:33:00.270Z,2.00
2022-11-28T09:35:27.529Z,2.00
2022-11-28T09:37:54.763Z,1.90
2022-11-28T09:40:42.378Z,1.90
2022-11-28T09:43:18.776Z,1.90
2022-11-28T09:45:49.501Z,1.90
2022-11-28T09:48:25.230Z,2.00
2022-11-28T09:50:57.666Z,2.10
2022-11-28T09:53:34.534Z,2.20
2022-11-28T09:56:21.857Z,2.30
2022-11-28T09:58:55.543Z,2.30
2022-11-28T10:01:35.987Z,2.20
2022-11-28T10:04:29.894Z,2.30
2022-11-28T10:07:36.948Z,2.30
2022-11-28T10:10:24.017Z,2.30
2022-11-28T10:12:54.571Z,2.30
2022-11-28T10:15:41.639Z,2.40
2022-11-28T10:18:14.839Z,2.50
2022-11-28T10:20:45.815Z,2.50
2022-11-28T10:23:17.478Z,2.60
2022-11-28T10:25:54.235Z,2.60
2022-11-28T10:28:26.605Z,2.70
2022-11-28T10:31:09.913Z,2.70
2022-11-28T10:33:42.277Z,2.70
2022-11-28T10:36:16.913Z,2.70
2022-11-28T10:38:44.171Z,2.70
2022-11-28T10:41:37.051Z,2.70
2022-11-28T10:44:29.421Z,2.70
2022-11-28T10:47:06.777Z,2.80
2022-11-28T10:49:36.032Z,2.80
2022-11-28T10:52:12.185Z,2.80
2022-11-28T10:54:59.226Z,2.90
2022-11-28T10:58:06.205Z,3.00
2022-11-28T11:00:35.560Z,2.90
2022-11-28T11:03:04.957Z,2.90
2022-11-28T11:05:34.138Z,2.90
2022-11-28T11:08:21.446Z,2.90
2022-11-28T11:10:56.157Z,3.00
2022-11-28T11:13:24.693Z,3.00
2022-11-28T11:15:59.507Z,2.90
2022-11-28T11:18:30.906Z,3.00
2022-11-28T11:21:22.705Z,3.10
2022-11-28T11:24:11.046Z,3.20
2022-11-28T11:26:43.728Z,3.20
2022-11-28T11:29:35.725Z,3.20
2022-11-28T11:32:06.383Z,3.10
2022-11-28T11:34:43.276Z,3.10
2022-11-28T11:37:32.094Z,3.20
2022-11-28T11:40:01.174Z,3.20
2022-11-28T11:42:30.786Z,3.20
2022-11-28T11:45:18.765Z,3.30
2022-11-28T11:47:45.921Z,3.40
2022-11-28T11:50:19.213Z,3.50
2022-11-28T11:53:10.408Z,3.60
2022-11-28T11:55:48.462Z,3.60
2022-11-28T11:58:20.820Z,3.60
2022-11-28T12:00:48.074Z,3.50
2022-11-28T12:03:36.439Z,3.50
2022-11-28T12:06:27.366Z,3.50
2022-11-28T12:09:00.612Z,3.60
2022-11-28T12:11:32.278Z,3.70
2022-11-28T12:14:10.032Z,3.80
2022-11-28T12:20:31.786Z,3.90
2022-11-28T12:23:30.642Z,3.80
2022-11-28T12:26:21.014Z,3.90
2022-11-28T12:29:11.497Z,3.90
2022-11-28T12:31:42.192Z,3.90
2022-11-28T12:34:18.122Z,3.90
2022-11-28T12:37:01.642Z,3.90
2022-11-28T12:39:46.405Z,4.00
2022-11-28T12:42:22.625Z,3.90
2022-11-28T12:45:29.540Z,3.80
2022-11-28T12:48:16.468Z,3.90
2022-11-28T12:50:47.327Z,3.80
2022-11-28T12:53:34.521Z,3.70
2022-11-28T12:56:21.516Z,3.60
2022-11-28T12:59:20.174Z,3.60
2022-11-28T13:01:51.941Z,3.50
2022-11-28T13:04:20.533Z,3.50
2022-11-28T13:07:08.750Z,3.50
2022-11-28T13:09:45.579Z,3.50
2022-11-28T13:12:32.915Z,3.40
2022-11-28T13:15:09.897Z,3.40
2022-11-28T13:17:36.988Z,3.40
2022-11-28T13:20:14.224Z,3.40
2022-11-28T13:22:42.347Z,3.40
2022-11-28T13:25:19.254Z,3.50
2022-11-28T13:27:57.003Z,3.50
2022-11-28T13:30:27.257Z,3.50
2022-11-28T13:33:15.427Z,3.60
2022-11-28T13:35:45.767Z,3.60
2022-11-28T13:39:11.312Z,3.60
2022-11-28T13:42:16.184Z,3.60
2022-11-28T13:44:51.611Z,3.60
2022-11-28T13:47:32.338Z,3.60
2022-11-28T13:50:39.559Z,3.50
2022-11-28T13:53:06.620Z,3.50
2022-11-28T13:55:39.397Z,3.50
2022-11-28T13:58:29.561Z,3.40
2022-11-28T14:01:15.689Z,3.40
2022-11-28T14:04:01.573Z,3.30
2022-11-28T14:06:41.393Z,3.30
2022-11-28T14:09:20.162Z,3.30
2022-11-28T14:11:50.293Z,3.30
2022-11-28T14:14:24.853Z,3.30
2022-11-28T14:17:00.943Z,3.30
2022-11-28T14:20:07.883Z,3.30
2022-11-28T14:22:44.731Z,3.30
2022-11-28T14:25:22.751Z,3.30
2022-11-28T14:27:54.917Z,3.20
2022-11-28T14:30:38.783Z,3.10
2022-11-28T14:33:20.729Z,3.10
2022-11-28T14:35:51.408Z,3.10
2022-11-28T14:38:35.631Z,3.10
2022-11-28T14:41:09.054Z,3.10
2022-11-28T14:43:42.744Z,3.10
2022-11-28T14:46:32.049Z,3.00
2022-11-28T14:48:59.539Z,3.00
2022-11-28T14:51:48.098Z,2.90
2022-11-28T14:54:37.529Z,2.90
2022-11-28T14:57:15.805Z,3.00
2022-11-28T14:59:43.619Z,3.00
2022-11-28T15:02:11.743Z,2.90
2022-11-28T15:05:00.066Z,2.90
2022-11-28T15:07:55.102Z,2.90
2022-11-28T15:10:28.541Z,2.80
2022-11-28T15:13:15.672Z,2.80
2022-11-28T15:15:51.501Z,2.80
2022-11-28T15:18:21.291Z,2.80
2022-11-28T15:20:55.542Z,2.80
2022-11-28T15:23:31.188Z,2.80
2022-11-28T15:26:00.104Z,2.80
2022-11-28T15:28:29.318Z,2.80
2022-11-28T15:31:00.604Z,2.80
2022-11-28T15:33:29.899Z,2.80
2022-11-28T15:36:00.592Z,2.80
2022-11-28T15:38:31.047Z,2.80
2022-11-28T15:41:00.518Z,2.80
2022-11-28T15:43:30.727Z,2.80
2022-11-28T15:46:01.484Z,2.70
2022-11-28T15:48:49.292Z,2.80
2022-11-28T15:51:26.961Z,2.70
2022-11-28T15:53:55.044Z,2.70
2022-11-28T15:56:23.102Z,2.70
2022-11-28T15:58:53.382Z,2.70
2022-11-28T16:01:23.139Z,2.70
2022-11-28T16:04:01.104Z,2.80
2022-11-28T16:06:36.064Z,2.70
2022-11-28T16:09:06.759Z,2.80
2022-11-28T16:11:36.044Z,2.80
2022-11-28T16:14:09.794Z,2.70
2022-11-28T16:16:39.183Z,2.70
2022-11-28T16:19:09.047Z,2.70
2022-11-28T16:21:38.318Z,2.70
2022-11-28T16:24:17.961Z,2.70
2022-11-28T16:27:01.859Z,2.70
2022-11-28T16:29:35.184Z,2.70
2022-11-28T16:32:21.816Z,2.70
2022-11-28T16:34:51.875Z,2.70
2022-11-28T16:37:24.183Z,2.70
2022-11-28T16:40:22.919Z,2.70
2022-11-28T16:42:54.954Z,2.80
2022-11-28T16:45:27.520Z,2.80
2022-11-28T16:48:06.576Z,2.80
2022-11-28T16:50:33.839Z,2.80
2022-11-28T16:53:02.584Z,2.90
2022-11-28T16:55:32.047Z,2.90
2022-11-28T16:58:17.153Z,2.90
2022-11-28T17:00:52.610Z,3.00
2022-11-28T17:03:41.215Z,3.00
2022-11-28T17:06:17.130Z,3.00
2022-11-28T17:08:44.828Z,2.90
2022-11-28T17:11:13.191Z,2.90
2022-11-28T17:13:40.778Z,3.00
2022-11-28T17:16:16.680Z,3.00
2022-11-28T17:18:44.473Z,3.10
2022-11-28T17:21:12.967Z,3.10
2022-11-28T17:23:41.405Z,3.10
2022-11-28T17:26:09.525Z,3.10
2022-11-28T17:28:36.838Z,3.10
2022-11-28T17:31:03.923Z,3.10
2022-11-28T17:33:31.164Z,3.00
2022-11-28T17:36:00.389Z,3.10
2022-11-28T17:38:27.587Z,3.00
2022-11-28T17:40:54.670Z,3.00
2022-11-28T17:43:22.390Z,3.00
2022-11-28T17:45:50.815Z,3.00
2022-11-28T17:48:18.791Z,3.00
2022-11-28T17:50:48.619Z,3.00
2022-11-28T17:53:19.247Z,3.00
2022-11-28T17:55:48.603Z,3.00
2022-11-28T17:58:21.095Z,3.00
2022-11-28T18:00:49.505Z,2.90
2022-11-28T18:03:18.069Z,3.00
2022-11-28T18:05:47.574Z,3.00
2022-11-28T18:08:21.775Z,3.00
2022-11-28T18:10:49.189Z,3.00
2022-11-28T18:13:17.807Z,3.00
2022-11-28T18:15:47.250Z,3.00
2022-11-28T18:18:15.923Z,3.00
2022-11-28T18:20:43.358Z,3.00
2022-11-28T18:23:12.602Z,3.00
2022-11-28T18:25:43.273Z,3.00
2022-11-28T18:28:18.414Z,3.00
2022-11-28T18:30:48.142Z,3.00
2022-11-28T18:33:16.519Z,3.00
2022-11-28T18:35:43.798Z,3.00
2022-11-28T18:38:11.978Z,3.00
2022-11-28T18:40:39.503Z,2.90
2022-11-28T18:43:06.767Z,3.00
2022-11-28T18:45:34.922Z,2.90
2022-11-28T18:48:03.000Z,2.90
2022-11-28T18:50:30.776Z,3.00
2022-11-28T18:52:58.204Z,3.00
2022-11-28T18:55:25.349Z,3.00
2022-11-28T18:57:52.606Z,2.90
2022-11-28T19:00:20.633Z,2.90
2022-11-28T19:02:48.929Z,3.00
2022-11-28T19:05:16.007Z,2.90
2022-11-28T19:07:43.435Z,2.90
2022-11-28T19:10:10.741Z,2.80
2022-11-28T19:12:37.967Z,2.80
2022-11-28T19:15:06.289Z,2.80
2022-11-28T19:17:34.499Z,2.90
2022-11-28T19:20:02.821Z,2.80
2022-11-28T19:22:30.099Z,2.90
2022-11-28T19:24:57.918Z,2.90
2022-11-28T19:27:26.020Z,2.90
2022-11-28T19:29:53.805Z,2.90
2022-11-28T19:32:21.274Z,2.80
2022-11-28T19:34:52.346Z,2.80
2022-11-28T19:37:19.726Z,2.80
2022-11-28T19:39:47.084Z,2.80
2022-11-28T19:42:16.346Z,2.70
2022-11-28T19:44:43.919Z,2.70
2022-11-28T19:47:12.889Z,2.70
2022-11-28T19:49:40.147Z,2.70
2022-11-28T19:52:07.535Z,2.70
2022-11-28T19:54:35.164Z,2.70
2022-11-28T19:57:02.422Z,2.70
2022-11-28T19:59:31.395Z,2.70
2022-11-28T20:01:59.009Z,2.70
2022-11-28T20:04:26.331Z,2.70
2022-11-28T20:06:53.608Z,2.70
2022-11-28T20:09:20.739Z,2.70
2022-11-28T20:11:48.557Z,2.60
2022-11-28T20:14:18.365Z,2.60
2022-11-28T20:16:46.556Z,2.70
2022-11-28T20:19:15.703Z,2.70
2022-11-28T20:21:46.104Z,2.60
2022-11-28T20:24:14.816Z,2.60
2022-11-28T20:26:43.989Z,2.70
2022-11-28T20:29:15.047Z,2.70
2022-11-28T20:31:46.504Z,2.70
2022-11-28T20:34:16.851Z,2.60
2022-11-28T20:36:44.353Z,2.60
2022-11-28T20:39:12.830Z,2.60
2022-11-28T20:41:40.008Z,2.60
2022-11-28T20:44:07.526Z,2.70
2022-11-28T20:46:35.831Z,2.70
2022-11-28T20:49:05.335Z,2.70
2022-11-28T20:51:34.497Z,2.70
2022-11-28T20:54:02.716Z,2.70
2022-11-28T20:56:31.893Z,2.80
2022-11-28T20:59:00.825Z,2.80
2022-11-28T21:01:34.570Z,2.80
2022-11-28T21:04:03.669Z,2.90
2022-11-28T21:06:30.853Z,2.80
2022-11-28T21:08:58.885Z,2.80
2022-11-28T21:14:15.594Z,2.80
2022-11-28T21:16:44.026Z,2.90
2022-11-28T21:19:12.786Z,2.90
2022-11-28T21:21:40.919Z,2.80
2022-11-28T21:24:12.153Z,2.80
2022-11-28T21:26:44.213Z,2.80
2022-11-28T21:29:15.076Z,2.80
2022-11-28T21:31:44.331Z,2.90
2022-11-28T21:34:14.643Z,2.80
2022-11-28T21:36:42.537Z,2.80
2022-11-28T21:39:14.240Z,2.80
2022-11-28T21:41:41.288Z,2.70
2022-11-28T21:44:09.125Z,2.70
2022-11-28T21:46:36.235Z,2.70
2022-11-28T21:49:03.477Z,2.70
2022-11-28T21:51:30.662Z,2.70
2022-11-28T21:53:58.205Z,2.70
2022-11-28T21:56:26.126Z,2.70
2022-11-28T21:58:54.280Z,2.70
2022-11-28T22:01:21.787Z,2.80
2022-11-28T22:03:49.433Z,2.70
2022-11-28T22:06:21.128Z,2.70
2022-11-28T22:08:49.807Z,2.70
2022-11-28T22:11:17.599Z,2.70
2022-11-28T22:13:46.108Z,2.70
2022-11-28T22:16:29.829Z,2.70
2022-11-28T22:19:00.870Z,2.70
2022-11-28T22:21:51.506Z,2.70
2022-11-28T22:24:15.529Z,2.80
2022-11-28T22:26:44.468Z,2.80
2022-11-28T22:29:12.898Z,2.80
2022-11-28T22:31:40.633Z,2.80
2022-11-28T22:34:09.789Z,2.80
2022-11-28T22:36:37.663Z,2.70
2022-11-28T22:39:06.221Z,2.80
2022-11-28T22:41:33.594Z,2.70
2022-11-28T22:44:03.720Z,2.70
2022-11-28T22:46:31.735Z,2.70
2022-11-28T22:49:00.826Z,2.70
2022-11-28T22:51:29.151Z,2.70
2022-11-28T22:53:58.588Z,2.70
2022-11-28T22:56:28.400Z,2.80
2022-11-28T22:58:57.154Z,2.80
2022-11-28T23:01:27.637Z,2.80
2022-11-28T23:03:56.626Z,2.70
2022-11-28T23:06:27.107Z,2.80
2022-11-28T23:08:56.244Z,2.70
2022-11-28T23:11:28.123Z,2.80
2022-11-28T23:13:56.348Z,2.70
2022-11-28T23:16:25.084Z,2.80
2022-11-28T23:18:55.424Z,2.70
2022-11-28T23:21:24.823Z,2.70
2022-11-28T23:23:51.916Z,2.80
2022-11-28T23:26:21.973Z,2.70
2022-11-28T23:28:50.471Z,2.70
2022-11-28T23:31:21.622Z,2.70
2022-11-28T23:33:49.121Z,2.70
2022-11-28T23:36:19.920Z,2.70
2022-11-28T23:38:49.376Z,2.70
2022-11-28T23:41:16.916Z,2.70
2022-11-28T23:43:44.335Z,2.70
2022-11-28T23:46:12.356Z,2.70
2022-11-28T23:48:40.400Z,2.70
2022-11-28T23:51:07.612Z,2.70
2022-11-28T23:53:36.095Z,2.70
2022-11-28T23:56:04.887Z,2.70
2022-11-28T23:58:32.189Z,2.70
